Time;durP1;ratioP1;P1;durP2;ratioP2;P2;SDS_P1;SDS_P2;PMS_P1;PMS_P2;Temp;Humidity;BMP_temperature;BMP_pressure;BME280_temperature;BME280_humidity;BME280_pressure;Samples;Min_cycle;Max_cycle;Signal;HPM_P1;HPM_P2
2020/01/06 00:00:19;;;;;;;23.1;18.7;;;;;;;2.24;73.78516;976.1766;;;;
2020/01/06 00:02:44;;;;;;;22.6;17.9;;;;;;;2.32;73.32715;976.1621;;;;
2020/01/06 00:05:09;;;;;;;24.4;18.4;;;;;;;2.19;73.00586;976.0952;;;;
2020/01/06 00:07:34;;;;;;;23.2;18.3;;;;;;;2.17;72.97949;976.0683;;;;
2020/01/06 00:09:59;;;;;;;26;18.8;;;;;;;2.14;73.15723;976.1;;;;
2020/01/06 00:12:24;;;;;;;26.1;19.1;;;;;;;2.32;73.05273;976.1227;;;;
2020/01/06 00:14:49;;;;;;;23.4;18.6;;;;;;;2.26;73.41992;976.1259;;;;
2020/01/06 00:17:15;;;;;;;23.5;19.1;;;;;;;2.3;73.2666;976.0717;;;;
2020/01/06 00:19:40;;;;;;;23.6;19.2;;;;;;;2.24;73.58008;976.1044;;;;
2020/01/06 00:22:05;;;;;;;24.3;17.7;;;;;;;2.19;73.65137;976.1152;;;;
2020/01/06 00:24:30;;;;;;;23.2;17.3;;;;;;;2.22;73.94336;976.0686;;;;
2020/01/06 00:26:55;;;;;;;22.7;16.3;;;;;;;2.24;73.60156;976.0891;;;;
2020/01/06 00:29:20;;;;;;;23.2;17.9;;;;;;;2.17;73.46289;976.0345;;;;
2020/01/06 00:31:46;;;;;;;25.8;19.2;;;;;;;2.07;73.08008;975.9659;;;;
2020/01/06 00:34:11;;;;;;;23.2;18.2;;;;;;;2.13;73.2041;975.9073;;;;
2020/01/06 00:36:36;;;;;;;21.6;17.2;;;;;;;2.12;73.45508;975.8552;;;;
2020/01/06 00:39:09;;;;;;;21.8;17.5;;;;;;;2.11;73.10742;975.7786;;;;
2020/01/06 00:41:27;;;;;;;23.6;18.9;;;;;;;2.13;73.36426;975.7821;;;;
2020/01/06 00:43:52;;;;;;;24.4;17.2;;;;;;;2.17;73.24414;975.7697;;;;
2020/01/06 00:46:17;;;;;;;21.1;17.3;;;;;;;2.17;73.09473;975.7769;;;;
2020/01/06 00:48:42;;;;;;;25.3;17.8;;;;;;;2.13;73.05469;975.7516;;;;
2020/01/06 00:51:07;;;;;;;22;17.7;;;;;;;2.13;73.66309;975.7444;;;;
2020/01/06 00:53:32;;;;;;;21.6;17.6;;;;;;;2.16;73.63379;975.7111;;;;
2020/01/06 00:55:57;;;;;;;23.3;18;;;;;;;2.18;73.29199;975.7191;;;;
2020/01/06 00:58:23;;;;;;;22.1;18.1;;;;;;;2.16;73.98926;975.6581;;;;
2020/01/06 01:00:48;;;;;;;21.4;17.7;;;;;;;2.13;74.16895;975.6409;;;;
2020/01/06 01:03:13;;;;;;;23.2;18.1;;;;;;;2.07;72.80273;975.5639;;;;
2020/01/06 01:05:38;;;;;;;25.1;19.8;;;;;;;2.15;73.34473;975.5886;;;;
2020/01/06 01:08:03;;;;;;;25.3;19;;;;;;;2.05;73.55762;975.5695;;;;
2020/01/06 01:10:28;;;;;;;22.5;17.8;;;;;;;1.97;73.76074;975.5496;;;;
2020/01/06 01:12:53;;;;;;;21;17.2;;;;;;;1.96;74.21973;975.5539;;;;
2020/01/06 01:15:18;;;;;;;23.2;17.7;;;;;;;1.91;74.36035;975.5945;;;;
2020/01/06 01:17:44;;;;;;;22.5;17.4;;;;;;;1.85;74.25781;975.6584;;;;
2020/01/06 01:21:17;;;;;;;21.1;17.6;;;;;;;1.86;74.22461;975.7001;;;;
2020/01/06 01:23:42;;;;;;;24.1;17.9;;;;;;;1.82;74.21875;975.6756;;;;
2020/01/06 01:26:07;;;;;;;21.7;17.3;;;;;;;1.79;75.00488;975.6407;;;;
2020/01/06 01:28:32;;;;;;;21.5;17.7;;;;;;;1.76;75.1377;975.625;;;;
2020/01/06 01:30:57;;;;;;;22.3;17.4;;;;;;;1.69;74.74609;975.568;;;;
2020/01/06 01:33:22;;;;;;;23.4;16.7;;;;;;;1.72;75.0498;975.5676;;;;
2020/01/06 01:35:47;;;;;;;25.5;17.3;;;;;;;1.68;74.91504;975.625;;;;
2020/01/06 01:38:13;;;;;;;23;17.1;;;;;;;1.62;74.62891;975.5969;;;;
2020/01/06 01:40:38;;;;;;;24.3;17.6;;;;;;;1.62;74.52734;975.5367;;;;
2020/01/06 01:43:03;;;;;;;22.5;17.1;;;;;;;1.51;74.19727;975.4408;;;;
2020/01/06 01:45:28;;;;;;;20.3;16.3;;;;;;;1.51;74.42676;975.418;;;;
2020/01/06 01:47:53;;;;;;;21.8;17.5;;;;;;;1.39;74.68262;975.4009;;;;
2020/01/06 01:50:18;;;;;;;20.6;16.8;;;;;;;1.39;74.39551;975.4988;;;;
2020/01/06 01:52:43;;;;;;;20.3;17.1;;;;;;;1.45;74.3584;975.4941;;;;
2020/01/06 01:55:08;;;;;;;21.1;16.4;;;;;;;1.54;74.51367;975.491;;;;
2020/01/06 01:57:33;;;;;;;21.3;17.2;;;;;;;1.48;74.55859;975.4072;;;;
2020/01/06 01:59:58;;;;;;;24.8;18;;;;;;;1.53;74.31543;975.3899;;;;
2020/01/06 02:02:23;;;;;;;24.1;17.7;;;;;;;1.43;74.4707;975.363;;;;
2020/01/06 02:04:49;;;;;;;20.9;16.5;;;;;;;1.43;74.04785;975.3333;;;;
2020/01/06 02:07:14;;;;;;;19.8;16.6;;;;;;;1.35;73.68945;975.3067;;;;
2020/01/06 02:09:39;;;;;;;19.1;16.5;;;;;;;1.28;73.75586;975.2473;;;;
2020/01/06 02:12:04;;;;;;;23.8;16.4;;;;;;;1.34;73.74414;975.2186;;;;
2020/01/06 02:14:29;;;;;;;22.3;18.1;;;;;;;1.4;73.91309;975.2174;;;;
2020/01/06 02:16:54;;;;;;;20.8;17.7;;;;;;;1.51;73.30273;975.1526;;;;
2020/01/06 02:19:19;;;;;;;24.4;18.6;;;;;;;1.48;73.49316;975.1803;;;;
2020/01/06 02:21:44;;;;;;;23.8;18.5;;;;;;;1.47;73.61621;975.1774;;;;
2020/01/06 02:24:51;;;;;;;19.9;17;;;;;;;1.33;74.41895;975.1769;;;;
2020/01/06 02:26:48;;;;;;;25.6;18;;;;;;;1.25;74.71484;975.1713;;;;
2020/01/06 02:28:59;;;;;;;22;17.2;;;;;;;1.3;74.74707;975.2166;;;;
2020/01/06 02:31:24;;;;;;;23.2;18.9;;;;;;;1.24;75.59473;975.1603;;;;
2020/01/06 02:33:50;;;;;;;24.1;18.3;;;;;;;1.33;75.39258;975.1537;;;;
2020/01/06 02:36:15;;;;;;;22.8;18.3;;;;;;;1.31;74.70117;975.1284;;;;
2020/01/06 02:38:40;;;;;;;21.9;17.8;;;;;;;1.32;74.86328;975.1003;;;;
2020/01/06 02:41:05;;;;;;;22;17.4;;;;;;;1.27;74.15625;975.0991;;;;
2020/01/06 02:43:30;;;;;;;21.5;17.4;;;;;;;1.16;74.42383;975.012;;;;
2020/01/06 02:45:55;;;;;;;25;18.8;;;;;;;1.27;74.70605;975.0237;;;;
2020/01/06 02:48:20;;;;;;;24.4;19.3;;;;;;;1.21;75.0625;974.9336;;;;
2020/01/06 02:50:45;;;;;;;24;18.6;;;;;;;1.36;74.57422;974.9136;;;;
2020/01/06 02:53:11;;;;;;;24.1;18.6;;;;;;;1.34;74.59082;974.8387;;;;
2020/01/06 02:55:36;;;;;;;22.9;17.6;;;;;;;1.31;74.11719;974.7717;;;;
2020/01/06 02:58:01;;;;;;;24.5;18.6;;;;;;;1.24;74.49512;974.7419;;;;
2020/01/06 03:00:26;;;;;;;24.5;19.1;;;;;;;1.34;74.64844;974.7136;;;;
2020/01/06 03:02:51;;;;;;;22;17.7;;;;;;;1.32;74.33594;974.6266;;;;
2020/01/06 03:05:16;;;;;;;21.6;17.4;;;;;;;1.3;74.25195;974.5778;;;;
2020/01/06 03:07:41;;;;;;;22.6;18.4;;;;;;;1.27;74.6377;974.611;;;;
2020/01/06 03:10:06;;;;;;;23.6;17.9;;;;;;;1.3;74.73438;974.5938;;;;
2020/01/06 03:12:31;;;;;;;22.7;17.2;;;;;;;1.3;74.71289;974.6227;;;;
2020/01/06 03:14:56;;;;;;;22.7;18;;;;;;;1.27;74.74023;974.5669;;;;
2020/01/06 03:17:21;;;;;;;23.4;18.4;;;;;;;1.29;74.9834;974.468;;;;
2020/01/06 03:19:46;;;;;;;22.7;18.1;;;;;;;1.19;74.95801;974.4659;;;;
2020/01/06 03:22:12;;;;;;;22.4;17.8;;;;;;;1.25;75.00098;974.4611;;;;
2020/01/06 03:24:37;;;;;;;21.3;17.8;;;;;;;1.28;74.81152;974.4514;;;;
2020/01/06 03:27:02;;;;;;;22.8;18;;;;;;;1.21;74.36328;974.4847;;;;
2020/01/06 03:29:27;;;;;;;21.3;17.3;;;;;;;1.1;74.22949;974.441;;;;
2020/01/06 03:31:52;;;;;;;21.9;17.4;;;;;;;1.07;74.51953;974.4037;;;;
2020/01/06 03:34:17;;;;;;;20.9;17.5;;;;;;;1.11;74.82715;974.4266;;;;
2020/01/06 03:36:42;;;;;;;22.2;17.7;;;;;;;1.11;75.2627;974.4602;;;;
2020/01/06 03:39:07;;;;;;;22.3;17.1;;;;;;;1.14;74.95996;974.4406;;;;
2020/01/06 03:41:32;;;;;;;21.5;17.3;;;;;;;1.12;75.03418;974.3513;;;;
2020/01/06 03:43:57;;;;;;;22.7;18;;;;;;;1.22;75.10938;974.3245;;;;
2020/01/06 03:46:22;;;;;;;23.4;17.6;;;;;;;1.04;75.3291;974.1621;;;;
2020/01/06 03:48:48;;;;;;;21.9;17.6;;;;;;;0.97;75.41016;974.122;;;;
2020/01/06 03:51:13;;;;;;;22.5;18.3;;;;;;;1.15;74.86816;974.1578;;;;
2020/01/06 03:53:38;;;;;;;21.7;17.6;;;;;;;1.14;74.96973;974.1594;;;;
2020/01/06 03:56:05;;;;;;;23.7;17.9;;;;;;;1;75.13965;974.0952;;;;
2020/01/06 03:58:31;;;;;;;21.9;17.7;;;;;;;0.84;75.74121;974.0662;;;;
2020/01/06 04:02:28;;;;;;;21.6;16.2;;;;;;;0.97;75.4668;974.106;;;;
2020/01/06 04:04:51;;;;;;;20.2;15.8;;;;;;;0.96;75.63574;974.1381;;;;
2020/01/06 04:07:16;;;;;;;20.7;16.8;;;;;;;0.93;75.50684;974.0799;;;;
2020/01/06 04:09:41;;;;;;;21.5;16.7;;;;;;;0.99;75.5166;974.0848;;;;
2020/01/06 04:12:06;;;;;;;22.7;16.5;;;;;;;1.03;74.96191;974.0083;;;;
2020/01/06 04:14:32;;;;;;;21.6;16.5;;;;;;;0.99;75.48145;973.9767;;;;
2020/01/06 04:16:57;;;;;;;19.9;15.9;;;;;;;1.04;75.30664;974.0154;;;;
2020/01/06 04:19:22;;;;;;;21.6;16.4;;;;;;;0.96;75.77344;974.0267;;;;
2020/01/06 04:21:59;;;;;;;20.4;15.9;;;;;;;1.1;74.99609;973.9796;;;;
2020/01/06 04:24:12;;;;;;;22.2;16.8;;;;;;;0.99;74.88574;973.9518;;;;
2020/01/06 04:26:37;;;;;;;20.8;15.9;;;;;;;1.01;74.55664;973.9093;;;;
2020/01/06 04:29:02;;;;;;;23;17.4;;;;;;;0.83;75.375;973.866;;;;
2020/01/06 04:31:28;;;;;;;25.5;19.2;;;;;;;0.98;74.99902;973.7671;;;;
2020/01/06 04:33:53;;;;;;;22.6;17.3;;;;;;;0.95;74.81055;973.7648;;;;
2020/01/06 04:36:18;;;;;;;22.4;17.7;;;;;;;0.93;74.94336;973.7715;;;;
2020/01/06 04:38:43;;;;;;;22.2;16.4;;;;;;;0.79;75.38867;973.7755;;;;
2020/01/06 04:41:08;;;;;;;20.1;16.2;;;;;;;0.69;75.5791;973.7722;;;;
2020/01/06 04:43:33;;;;;;;18.3;15.5;;;;;;;0.76;75.7959;973.8027;;;;
2020/01/06 04:45:58;;;;;;;20.7;16.3;;;;;;;0.77;75.66992;973.8387;;;;
2020/01/06 04:48:23;;;;;;;21.9;16.4;;;;;;;0.73;75.23047;973.7863;;;;
2020/01/06 04:50:48;;;;;;;21.7;15.9;;;;;;;0.72;75.13574;973.7445;;;;
2020/01/06 04:53:13;;;;;;;20.5;16.3;;;;;;;0.69;75.15527;973.7369;;;;
2020/01/06 04:55:38;;;;;;;19;15.3;;;;;;;0.66;75.67578;973.7356;;;;
2020/01/06 04:58:03;;;;;;;19.3;15.3;;;;;;;0.76;75.52148;973.7731;;;;
2020/01/06 05:00:29;;;;;;;19.4;15.3;;;;;;;0.74;75.28906;973.6989;;;;
2020/01/06 05:02:54;;;;;;;20.3;15.9;;;;;;;0.74;74.7959;973.7285;;;;
2020/01/06 05:05:19;;;;;;;19.9;15.5;;;;;;;0.64;74.7207;973.6959;;;;
2020/01/06 05:07:44;;;;;;;19.3;16;;;;;;;0.54;75.06934;973.7431;;;;
2020/01/06 05:10:09;;;;;;;19.3;15.6;;;;;;;0.59;74.96289;973.6811;;;;
2020/01/06 05:12:34;;;;;;;18.9;15.6;;;;;;;0.62;74.90039;973.6672;;;;
2020/01/06 05:14:59;;;;;;;17.8;14.4;;;;;;;0.61;75.28809;973.6408;;;;
2020/01/06 05:17:24;;;;;;;18.9;15.3;;;;;;;0.61;75.38184;973.736;;;;
2020/01/06 05:19:50;;;;;;;18.9;15;;;;;;;0.67;74.84082;973.6877;;;;
2020/01/06 05:22:15;;;;;;;23.1;15.6;;;;;;;0.61;75.07031;973.7369;;;;
2020/01/06 05:24:40;;;;;;;20.1;14.9;;;;;;;0.71;74.6875;973.7402;;;;
2020/01/06 05:27:05;;;;;;;17.8;14.4;;;;;;;0.74;74.32715;973.7517;;;;
2020/01/06 05:29:30;;;;;;;17.7;14.5;;;;;;;0.67;74.33691;973.7949;;;;
2020/01/06 05:31:55;;;;;;;21.1;14.9;;;;;;;0.49;74.13477;973.837;;;;
2020/01/06 05:34:21;;;;;;;18.5;14.4;;;;;;;0.54;74.33691;973.8008;;;;
2020/01/06 05:36:46;;;;;;;19;15;;;;;;;0.49;74.15723;973.8434;;;;
2020/01/06 05:39:11;;;;;;;17.5;14;;;;;;;0.53;74.31055;973.8596;;;;
2020/01/06 05:41:36;;;;;;;19.2;14.5;;;;;;;0.45;74.41309;973.748;;;;
2020/01/06 05:44:01;;;;;;;20.3;14.9;;;;;;;0.46;74.29883;973.7389;;;;
2020/01/06 05:46:26;;;;;;;17.3;13.9;;;;;;;0.56;73.90625;973.8295;;;;
2020/01/06 05:48:52;;;;;;;18.7;14.2;;;;;;;0.45;74.34473;973.8326;;;;
2020/01/06 05:51:17;;;;;;;18.1;14.1;;;;;;;0.49;74.31641;973.8414;;;;
2020/01/06 05:53:42;;;;;;;17.5;14;;;;;;;0.45;73.30273;973.8646;;;;
2020/01/06 05:58:37;;;;;;;17.5;14.4;;;;;;;0.43;73.27637;973.9081;;;;
2020/01/06 06:00:59;;;;;;;18.4;14.3;;;;;;;0.4;73.56836;973.8948;;;;
2020/01/06 06:03:23;;;;;;;17.8;14.6;;;;;;;0.44;73.82813;973.9426;;;;
2020/01/06 06:05:48;;;;;;;18.5;14.1;;;;;;;0.34;73.83398;973.9431;;;;
2020/01/06 06:08:13;;;;;;;19.2;14.7;;;;;;;0.33;73.95605;973.9002;;;;
2020/01/06 06:10:38;;;;;;;17.1;13.9;;;;;;;0.35;74.81738;973.8527;;;;
2020/01/06 06:13:03;;;;;;;19;14.8;;;;;;;0.46;74.08105;973.8663;;;;
2020/01/06 06:15:29;;;;;;;16.9;14.3;;;;;;;0.35;73.94922;973.9503;;;;
2020/01/06 06:17:54;;;;;;;18.1;14;;;;;;;0.32;73.72656;974.0754;;;;
2020/01/06 06:20:19;;;;;;;19;14.9;;;;;;;0.26;74.27637;974.0464;;;;
2020/01/06 06:22:44;;;;;;;18.2;13.9;;;;;;;0.35;74.6123;974.0064;;;;
2020/01/06 06:25:26;;;;;;;18.6;14.2;;;;;;;0.33;74.33398;974.1124;;;;
2020/01/06 06:27:51;;;;;;;16.7;13.4;;;;;;;0.26;73.47461;974.0352;;;;
2020/01/06 06:30:16;;;;;;;17.5;13.7;;;;;;;0.34;73.33984;974.0539;;;;
2020/01/06 06:32:41;;;;;;;18;14.2;;;;;;;0.31;73.62207;974.065;;;;
2020/01/06 06:35:06;;;;;;;17.9;14.4;;;;;;;0.11;73.80371;974.0491;;;;
2020/01/06 06:37:31;;;;;;;16.6;13.8;;;;;;;0.17;73.67871;974.0134;;;;
2020/01/06 06:39:56;;;;;;;19.9;14.4;;;;;;;0.2;74.32227;974.0443;;;;
2020/01/06 06:42:21;;;;;;;16.8;13.8;;;;;;;0.27;74.5293;973.9877;;;;
2020/01/06 06:44:46;;;;;;;17.3;14;;;;;;;0.37;74.27344;973.9888;;;;
2020/01/06 06:47:11;;;;;;;17.4;14.1;;;;;;;0.28;73.57129;973.9989;;;;
2020/01/06 06:49:36;;;;;;;17.6;13.7;;;;;;;0.27;73.39648;973.9205;;;;
2020/01/06 06:52:02;;;;;;;17;14.2;;;;;;;0.2;74.2666;973.865;;;;
2020/01/06 06:54:27;;;;;;;19;14.2;;;;;;;0.12;74.22949;973.8976;;;;
2020/01/06 06:56:52;;;;;;;19.5;15.1;;;;;;;0.14;74.23145;973.8928;;;;
2020/01/06 06:59:17;;;;;;;19.8;14.7;;;;;;;0.14;73.60352;973.9;;;;
2020/01/06 07:01:42;;;;;;;18;13.9;;;;;;;0.15;73.72949;973.9152;;;;
2020/01/06 07:04:07;;;;;;;18.4;14.4;;;;;;;0.21;73.66211;973.9171;;;;
2020/01/06 07:06:32;;;;;;;20.1;14.9;;;;;;;0.17;73.04785;973.9614;;;;
2020/01/06 07:08:58;;;;;;;19.7;15;;;;;;;0.23;73.25293;974.0023;;;;
2020/01/06 07:11:23;;;;;;;18.7;14.8;;;;;;;0.25;73.0498;973.9911;;;;
2020/01/06 07:13:48;;;;;;;19.6;14.9;;;;;;;0.22;72.8623;974.009;;;;
2020/01/06 07:16:13;;;;;;;18.3;15.1;;;;;;;0.29;73.33203;974.0494;;;;
2020/01/06 07:18:38;;;;;;;20.8;15.3;;;;;;;0.36;77.72754;974.04;;;;
2020/01/06 07:21:03;;;;;;;18.8;15.1;;;;;;;0.49;75.50684;974.0455;;;;
2020/01/06 07:25:53;;;;;;;20.6;15.9;;;;;;;0.76;72.65723;974.0709;;;;
2020/01/06 07:28:19;;;;;;;19.7;15.3;;;;;;;0.71;72.77441;974.1108;;;;
2020/01/06 07:30:44;;;;;;;20.7;16.8;;;;;;;0.55;73.88086;974.0945;;;;
2020/01/06 07:33:09;;;;;;;19.2;15.2;;;;;;;0.75;73.73242;974.0889;;;;
2020/01/06 07:35:34;;;;;;;22.8;17.9;;;;;;;0.75;72.78223;974.0449;;;;
2020/01/06 07:37:59;;;;;;;24.3;18.5;;;;;;;0.82;72.77148;974.0577;;;;
2020/01/06 07:40:24;;;;;;;20.9;15.9;;;;;;;0.66;73.21387;973.9886;;;;
2020/01/06 07:42:50;;;;;;;19.6;15.4;;;;;;;0.67;73.23828;973.931;;;;
2020/01/06 07:45:15;;;;;;;19.3;15.2;;;;;;;0.67;73.57031;973.9839;;;;
2020/01/06 07:47:40;;;;;;;19.1;14.8;;;;;;;1.3;71.19141;974.0126;;;;
2020/01/06 07:50:05;;;;;;;17.9;14.3;;;;;;;1.41;70.42871;974.0066;;;;
2020/01/06 07:52:31;;;;;;;17;13.9;;;;;;;1.38;70.99707;974.0439;;;;
2020/01/06 07:54:56;;;;;;;18;13.6;;;;;;;1.98;69.19043;973.9648;;;;
2020/01/06 07:57:21;;;;;;;19.3;12.9;;;;;;;2.83;66.31348;974.0464;;;;
2020/01/06 07:59:46;;;;;;;18.9;14;;;;;;;4.32;60.98926;973.9406;;;;
2020/01/06 08:02:11;;;;;;;18.2;13.2;;;;;;;4.71;59.15039;973.9337;;;;
2020/01/06 08:04:37;;;;;;;17;13.5;;;;;;;4.39;59.74121;973.9066;;;;
2020/01/06 08:07:02;;;;;;;20.4;13.3;;;;;;;4.37;59.70313;973.9289;;;;
2020/01/06 08:09:27;;;;;;;16.6;13.7;;;;;;;4.09;60.91016;973.9353;;;;
2020/01/06 08:11:52;;;;;;;18.4;13.2;;;;;;;5.04;58.24805;973.9244;;;;
2020/01/06 08:14:17;;;;;;;20;13.9;;;;;;;5.61;56.11133;973.8217;;;;
2020/01/06 08:16:42;;;;;;;19.2;14.4;;;;;;;6.15;54.77832;973.728;;;;
2020/01/06 08:19:07;;;;;;;17.6;14;;;;;;;6.65;53.18164;973.7089;;;;
2020/01/06 08:21:33;;;;;;;17.2;12.8;;;;;;;6.26;54.44629;973.7364;;;;
2020/01/06 08:23:58;;;;;;;16.7;12.3;;;;;;;7.07;52.15234;973.7154;;;;
2020/01/06 08:26:23;;;;;;;15;12.2;;;;;;;7.15;51.88281;973.6439;;;;
2020/01/06 08:28:48;;;;;;;13.9;12.1;;;;;;;7.37;52.35254;973.64;;;;
2020/01/06 08:31:13;;;;;;;18.9;14.1;;;;;;;8.16;50.95703;973.6339;;;;
2020/01/06 08:33:38;;;;;;;18.8;15.3;;;;;;;8.92;48.60645;973.5997;;;;
2020/01/06 08:36:03;;;;;;;19.1;14.2;;;;;;;9.87;46.36133;973.6083;;;;
2020/01/06 08:38:28;;;;;;;16.5;13.6;;;;;;;10.17;45.09473;973.5801;;;;
2020/01/06 08:40:54;;;;;;;15.7;13.2;;;;;;;12.03;41.125;973.5513;;;;
2020/01/06 08:43:19;;;;;;;16.7;13.7;;;;;;;13.86;36.75195;973.5711;;;;
2020/01/06 08:45:44;;;;;;;15.5;12.3;;;;;;;14.81;34.90332;973.537;;;;
2020/01/06 08:48:09;;;;;;;16;13;;;;;;;14.8;34.70117;973.4589;;;;
2020/01/06 08:50:34;;;;;;;13.7;12.2;;;;;;;11.47;41.1543;973.4669;;;;
2020/01/06 08:52:59;;;;;;;17.2;12.9;;;;;;;9.08;47.28125;973.5117;;;;
2020/01/06 08:55:25;;;;;;;15.1;13.4;;;;;;;7.63;51.68555;973.467;;;;
2020/01/06 08:57:50;;;;;;;17.7;13.8;;;;;;;7.16;53.59375;973.5385;;;;
2020/01/06 09:00:15;;;;;;;13.9;12.4;;;;;;;6.34;56.58008;973.4924;;;;
2020/01/06 09:02:40;;;;;;;15.3;12.8;;;;;;;5.95;58.2666;973.4309;;;;
2020/01/06 09:05:05;;;;;;;15;13.1;;;;;;;5.76;58.76367;973.4766;;;;
2020/01/06 09:07:30;;;;;;;14.5;12;;;;;;;5.6;59.91016;973.4636;;;;
2020/01/06 09:09:56;;;;;;;14.2;12.7;;;;;;;5.11;61.19531;973.4604;;;;
2020/01/06 09:12:21;;;;;;;16.4;13.8;;;;;;;5.04;61.02441;973.4494;;;;
2020/01/06 09:14:46;;;;;;;15.7;14;;;;;;;4.61;62.4082;973.4274;;;;
2020/01/06 09:17:11;;;;;;;15.4;13.3;;;;;;;4.42;63.78906;973.4467;;;;
2020/01/06 09:19:36;;;;;;;16.4;13.8;;;;;;;4.42;63.91602;973.4353;;;;
2020/01/06 09:22:01;;;;;;;18.9;14.4;;;;;;;4.32;64.25879;973.4057;;;;
2020/01/06 09:24:26;;;;;;;16.5;14.6;;;;;;;4.27;64.62012;973.3597;;;;
2020/01/06 09:26:51;;;;;;;17;14.1;;;;;;;4.21;65.14355;973.3398;;;;
2020/01/06 09:29:16;;;;;;;17.1;13;;;;;;;3.93;66.68164;973.3672;;;;
2020/01/06 09:31:41;;;;;;;15.3;13.1;;;;;;;4.07;65.95313;973.3939;;;;
2020/01/06 09:34:06;;;;;;;15.3;12.8;;;;;;;4.22;65.78027;973.413;;;;
2020/01/06 09:36:32;;;;;;;14.9;13.3;;;;;;;4.31;65.75977;973.4219;;;;
2020/01/06 09:38:57;;;;;;;16.7;13.4;;;;;;;4.47;65.25293;973.4448;;;;
2020/01/06 09:41:22;;;;;;;16.3;13.8;;;;;;;4.22;65.82715;973.3679;;;;
2020/01/06 09:43:47;;;;;;;15.8;13.4;;;;;;;4.26;65.68164;973.3259;;;;
2020/01/06 09:46:12;;;;;;;16.7;14.3;;;;;;;4.34;65.11719;973.332;;;;
2020/01/06 09:48:37;;;;;;;17.1;13.9;;;;;;;4.19;66.21484;973.355;;;;
2020/01/06 09:53:47;;;;;;;17;14.1;;;;;;;4.05;66.875;973.2742;;;;
2020/01/06 09:55:59;;;;;;;17;13.1;;;;;;;3.97;67.24219;973.2424;;;;
2020/01/06 10:00:45;;;;;;;16.4;13.9;;;;;;;4.22;66.94629;973.2198;;;;
2020/01/06 10:03:08;;;;;;;15.5;13.3;;;;;;;4.4;66.78906;973.2177;;;;
2020/01/06 10:05:33;;;;;;;16.3;13.4;;;;;;;4.67;66.05762;973.2191;;;;
2020/01/06 10:07:58;;;;;;;17.5;13.7;;;;;;;4.58;67.12012;973.1978;;;;
2020/01/06 10:10:23;;;;;;;16.3;13.3;;;;;;;4.13;67.72949;973.1959;;;;
2020/01/06 10:12:48;;;;;;;17;14.2;;;;;;;4.17;68.47363;973.2008;;;;
2020/01/06 10:15:13;;;;;;;16.1;14;;;;;;;4.23;68.34473;973.2994;;;;
2020/01/06 10:17:38;;;;;;;15;13.2;;;;;;;4.3;67.8252;973.2775;;;;
2020/01/06 10:20:03;;;;;;;17;13.9;;;;;;;4.3;68.26367;973.2799;;;;
2020/01/06 10:22:28;;;;;;;18.8;14.5;;;;;;;4.21;69.92285;973.2385;;;;
2020/01/06 10:24:54;;;;;;;16.7;14.2;;;;;;;4.03;69.07617;973.2363;;;;
2020/01/06 10:27:19;;;;;;;16.8;13.8;;;;;;;4.15;68.74805;973.1892;;;;
2020/01/06 10:29:44;;;;;;;16.8;14.7;;;;;;;4.26;68.9502;973.2092;;;;
2020/01/06 10:32:09;;;;;;;16.6;13.6;;;;;;;4.32;68.39551;973.2357;;;;
2020/01/06 10:34:34;;;;;;;18.1;15.2;;;;;;;4.25;68.28027;973.2117;;;;
2020/01/06 10:36:59;;;;;;;19.3;15.1;;;;;;;4.19;68.66309;973.1541;;;;
2020/01/06 10:39:24;;;;;;;20.9;14.4;;;;;;;4.12;69.25195;973.1953;;;;
2020/01/06 10:41:50;;;;;;;16.5;14.3;;;;;;;4.08;70.09863;973.1448;;;;
2020/01/06 10:44:15;;;;;;;17;14;;;;;;;4.21;69.15039;973.1039;;;;
2020/01/06 10:46:40;;;;;;;17.4;13.9;;;;;;;4.25;69.66406;973.1022;;;;
2020/01/06 10:49:05;;;;;;;17.9;13.8;;;;;;;4.38;68.89063;973.0222;;;;
2020/01/06 10:51:30;;;;;;;18;15;;;;;;;4.27;69.10254;972.9897;;;;
2020/01/06 10:53:55;;;;;;;19.1;14.9;;;;;;;4.28;69.32422;972.9444;;;;
2020/01/06 10:56:20;;;;;;;16;14.3;;;;;;;4.2;69.96875;972.9109;;;;
2020/01/06 10:58:45;;;;;;;16.4;14.4;;;;;;;4.17;70.21875;972.8867;;;;
2020/01/06 11:01:11;;;;;;;23.7;17.8;;;;;;;4.12;70.68359;972.8837;;;;
2020/01/06 11:03:36;;;;;;;19.9;16.6;;;;;;;3.99;70.62695;972.7823;;;;
2020/01/06 11:06:01;;;;;;;19.9;15.4;;;;;;;4.17;71.0498;972.7321;;;;
2020/01/06 11:08:26;;;;;;;17.1;15.2;;;;;;;4.19;71.20313;972.5969;;;;
2020/01/06 11:10:51;;;;;;;18.4;15.1;;;;;;;4.2;71.35449;972.5911;;;;
2020/01/06 11:13:17;;;;;;;17.9;15.4;;;;;;;4.23;70.41406;972.5556;;;;
2020/01/06 11:15:42;;;;;;;19.7;16.4;;;;;;;4.35;70.68652;972.5221;;;;
2020/01/06 11:18:07;;;;;;;21.5;17;;;;;;;4.38;69.99805;972.5184;;;;
2020/01/06 11:20:32;;;;;;;24.1;16.3;;;;;;;4.42;70.58301;972.4735;;;;
2020/01/06 11:22:57;;;;;;;26.5;19.3;;;;;;;4.5;71.16211;972.4207;;;;
2020/01/06 11:25:22;;;;;;;17.8;14.4;;;;;;;4.41;70.26758;972.4128;;;;
2020/01/06 11:27:47;;;;;;;31;21.7;;;;;;;4.44;70.16992;972.3145;;;;
2020/01/06 11:30:12;;;;;;;19.4;16.1;;;;;;;4.44;70.45898;972.3258;;;;
2020/01/06 11:32:38;;;;;;;17.1;14.8;;;;;;;4.34;69.87695;972.3406;;;;
2020/01/06 11:35:03;;;;;;;20;15.7;;;;;;;4.4;70.90234;972.2793;;;;
2020/01/06 11:39:53;;;;;;;20.4;15.7;;;;;;;4.43;70.9541;972.1761;;;;
2020/01/06 11:42:18;;;;;;;15.9;13.8;;;;;;;4.43;70.78125;972.1358;;;;
2020/01/06 11:44:44;;;;;;;16;13.3;;;;;;;4.24;71.44336;972.086;;;;
2020/01/06 11:47:21;;;;;;;16.1;13.5;;;;;;;4.13;71.37793;972.051;;;;
2020/01/06 11:49:39;;;;;;;15.1;13.1;;;;;;;4.35;70.91797;972.0114;;;;
2020/01/06 11:51:59;;;;;;;16.5;13.5;;;;;;;4.65;70.35449;971.9468;;;;
2020/01/06 11:54:24;;;;;;;16.1;13.3;;;;;;;4.8;69.98828;971.8748;;;;
2020/01/06 11:56:49;;;;;;;18.3;14.4;;;;;;;5.1;67.88477;971.7734;;;;
2020/01/06 11:59:14;;;;;;;15.5;12.7;;;;;;;5.4;66.57715;971.7255;;;;
2020/01/06 12:01:41;;;;;;;17.9;13.2;;;;;;;5.55;65.56836;971.7313;;;;
2020/01/06 12:04:04;;;;;;;17;13.1;;;;;;;5.8;64.92188;971.7115;;;;
2020/01/06 12:06:29;;;;;;;14.9;13;;;;;;;5.8;64.70117;971.6912;;;;
2020/01/06 12:08:55;;;;;;;14.6;12.5;;;;;;;6.01;63.91113;971.6191;;;;
2020/01/06 12:11:20;;;;;;;16.4;13.2;;;;;;;6.15;62.90039;971.5861;;;;
2020/01/06 12:13:45;;;;;;;17.5;13.4;;;;;;;6.28;63.23242;971.4772;;;;
2020/01/06 12:16:10;;;;;;;24.8;14;;;;;;;6.72;62.50781;971.4071;;;;
2020/01/06 12:18:35;;;;;;;15.5;11.3;;;;;;;7;60.1875;971.3864;;;;
2020/01/06 12:21:00;;;;;;;14.3;10.3;;;;;;;7;58.53809;971.4153;;;;
2020/01/06 12:23:26;;;;;;;14.6;10.2;;;;;;;7.18;58.3877;971.4199;;;;
2020/01/06 12:25:51;;;;;;;12.3;10.5;;;;;;;7.09;57.5498;971.3596;;;;
2020/01/06 12:28:16;;;;;;;13.2;9.9;;;;;;;7.11;57.75098;971.3701;;;;
2020/01/06 12:30:41;;;;;;;12.6;10.1;;;;;;;7.37;57.83301;971.4026;;;;
2020/01/06 12:33:10;;;;;;;14.3;11.8;;;;;;;7.27;57.52734;971.3533;;;;
2020/01/06 12:35:35;;;;;;;15.5;11.8;;;;;;;7.43;57.41016;971.3794;;;;
2020/01/06 12:38:00;;;;;;;16.2;11;;;;;;;7.52;57.57324;971.3425;;;;
2020/01/06 12:40:25;;;;;;;17.7;13.3;;;;;;;7.57;57.46289;971.2985;;;;
2020/01/06 12:42:50;;;;;;;12.9;10.7;;;;;;;7.78;56.31543;971.2436;;;;
2020/01/06 12:45:15;;;;;;;13.6;10.7;;;;;;;7.78;56.29199;971.212;;;;
2020/01/06 12:47:40;;;;;;;14.6;11.8;;;;;;;7.78;56.60645;971.2035;;;;
2020/01/06 12:50:05;;;;;;;11.9;10.5;;;;;;;7.73;56.48242;971.1764;;;;
2020/01/06 12:52:30;;;;;;;14.7;10;;;;;;;7.71;56.83008;971.206;;;;
2020/01/06 12:54:55;;;;;;;12.8;10.3;;;;;;;7.85;56.41895;971.1469;;;;
2020/01/06 12:57:20;;;;;;;12.2;9.6;;;;;;;8.15;55.53613;971.1553;;;;
2020/01/06 12:59:46;;;;;;;14;9.4;;;;;;;7.98;55.81641;971.1171;;;;
2020/01/06 13:02:11;;;;;;;13.5;9.7;;;;;;;8.09;55.93555;971.0815;;;;
2020/01/06 13:04:36;;;;;;;11.6;9.6;;;;;;;8.01;55.69238;971.0987;;;;
2020/01/06 13:07:01;;;;;;;15.1;10.1;;;;;;;8.07;56.13184;971.0606;;;;
2020/01/06 13:09:44;;;;;;;13.1;9.6;;;;;;;8.3;55.41504;971.0559;;;;
2020/01/06 13:11:51;;;;;;;12.4;9.4;;;;;;;8.25;55.53711;971.0577;;;;
2020/01/06 13:16:41;;;;;;;10.9;8.6;;;;;;;8.4;55.13672;971.063;;;;
2020/01/06 13:19:06;;;;;;;10.9;8.9;;;;;;;8.25;55.47852;971.0659;;;;
2020/01/06 13:21:31;;;;;;;11.6;9.2;;;;;;;8.31;54.9502;971.0789;;;;
2020/01/06 13:23:57;;;;;;;13.1;8.8;;;;;;;8.43;55.00098;971.0591;;;;
2020/01/06 13:26:21;;;;;;;14.3;9.4;;;;;;;8.6;54.89355;970.9567;;;;
2020/01/06 13:28:54;;;;;;;10.2;8.9;;;;;;;8.59;54.2168;970.9618;;;;
2020/01/06 13:31:12;;;;;;;20.7;9.3;;;;;;;8.84;54.58594;970.9671;;;;
2020/01/06 13:33:40;;;;;;;14.3;8.9;;;;;;;8.71;53.93945;970.8956;;;;
2020/01/06 13:36:02;;;;;;;14.6;8.9;;;;;;;8.77;54.7168;970.9333;;;;
2020/01/06 13:38:46;;;;;;;13.4;9.2;;;;;;;8.67;54.4248;970.8691;;;;
2020/01/06 13:40:52;;;;;;;10.8;9.1;;;;;;;8.67;54.48242;970.8407;;;;
2020/01/06 13:43:17;;;;;;;10.7;8.7;;;;;;;8.73;54.08203;970.8364;;;;
2020/01/06 13:45:42;;;;;;;13.2;9.2;;;;;;;8.93;53.90918;970.8038;;;;
2020/01/06 13:48:07;;;;;;;11.4;9.1;;;;;;;8.89;53.9502;970.8397;;;;
2020/01/06 13:50:32;;;;;;;21.2;9.2;;;;;;;9.08;53.92676;970.8041;;;;
2020/01/06 13:52:57;;;;;;;13.2;9.3;;;;;;;8.9;53.83594;970.7758;;;;
2020/01/06 13:55:22;;;;;;;13.2;9.6;;;;;;;8.75;54.67969;970.7227;;;;
2020/01/06 13:57:47;;;;;;;12;9.5;;;;;;;8.8;54.52246;970.7095;;;;
2020/01/06 14:00:12;;;;;;;11.7;8.9;;;;;;;8.88;54.1709;970.709;;;;
2020/01/06 14:02:38;;;;;;;11.8;8.9;;;;;;;9.06;53.81934;970.6931;;;;
2020/01/06 14:05:03;;;;;;;11.9;8.9;;;;;;;8.98;54.00879;970.6844;;;;
2020/01/06 14:07:28;;;;;;;13.6;9.3;;;;;;;9;53.70703;970.6591;;;;
2020/01/06 14:09:53;;;;;;;15.9;9;;;;;;;9.05;53.43262;970.6715;;;;
2020/01/06 14:12:18;;;;;;;19.1;8.9;;;;;;;8.87;53.51563;970.6636;;;;
2020/01/06 14:14:43;;;;;;;9.4;8.3;;;;;;;8.92;53.32324;970.6191;;;;
2020/01/06 14:17:08;;;;;;;12.7;9.1;;;;;;;8.77;54.55371;970.6591;;;;
2020/01/06 14:19:33;;;;;;;13.8;9.1;;;;;;;8.75;54.60938;970.6409;;;;